sensor_id;sensor_type;location;lat;lon;timestamp;pressure;altitude;pressure_sealevel;temperature;humidity
6128;BME280;7073;42.672;23.256;2023-09-30T00:00:00;94802.84;;;15.00;74.89
6128;BME280;7073;42.672;23.256;2023-09-30T00:02:28;94804.97;;;15.15;74.07
6128;BME280;7073;42.672;23.256;2023-09-30T00:04:56;94802.84;;;15.00;73.84
6128;BME280;7073;42.672;23.256;2023-09-30T00:07:23;94801.13;;;14.94;74.25
6128;BME280;7073;42.672;23.256;2023-09-30T00:09:50;94808.03;;;15.23;73.59
6128;BME280;7073;42.672;23.256;2023-09-30T00:12:17;94794.25;;;15.16;73.12
6128;BME280;7073;42.672;23.256;2023-09-30T00:14:44;94796.78;;;15.11;73.64
6128;BME280;7073;42.672;23.256;2023-09-30T00:17:10;94796.53;;;15.24;72.68
6128;BME280;7073;42.672;23.256;2023-09-30T00:19:36;94798.09;;;15.25;73.10
6128;BME280;7073;42.672;23.256;2023-09-30T00:22:04;94797.88;;;15.27;72.27
6128;BME280;7073;42.672;23.256;2023-09-30T00:24:31;94797.28;;;15.37;72.35
6128;BME280;7073;42.672;23.256;2023-09-30T00:26:59;94796.72;;;15.35;72.68
6128;BME280;7073;42.672;23.256;2023-09-30T00:29:26;94790.69;;;15.22;73.69
6128;BME280;7073;42.672;23.256;2023-09-30T00:31:53;94777.69;;;15.27;72.75
6128;BME280;7073;42.672;23.256;2023-09-30T00:34:19;94783.69;;;15.40;72.07
6128;BME280;7073;42.672;23.256;2023-09-30T00:36:46;94784.00;;;15.55;72.09
6128;BME280;7073;42.672;23.256;2023-09-30T00:39:15;94781.97;;;15.73;70.52
6128;BME280;7073;42.672;23.256;2023-09-30T00:41:41;94789.28;;;15.71;70.13
6128;BME280;7073;42.672;23.256;2023-09-30T00:44:08;94784.03;;;15.71;70.58
6128;BME280;7073;42.672;23.256;2023-09-30T00:46:37;94788.75;;;15.69;70.54
6128;BME280;7073;42.672;23.256;2023-09-30T00:49:06;94779.91;;;15.75;70.58
6128;BME280;7073;42.672;23.256;2023-09-30T00:51:35;94784.38;;;15.47;72.76
6128;BME280;7073;42.672;23.256;2023-09-30T00:54:03;94751.84;;;15.48;71.70
6128;BME280;7073;42.672;23.256;2023-09-30T00:56:32;94788.59;;;15.76;70.96
6128;BME280;7073;42.672;23.256;2023-09-30T00:58:59;94793.47;;;15.56;71.25
6128;BME280;7073;42.672;23.256;2023-09-30T01:01:27;94790.75;;;15.51;71.96
6128;BME280;7073;42.672;23.256;2023-09-30T01:03:54;94789.44;;;15.65;70.90
6128;BME280;7073;42.672;23.256;2023-09-30T01:06:21;94781.75;;;15.75;71.00
6128;BME280;7073;42.672;23.256;2023-09-30T01:08:48;94783.97;;;15.83;70.71
6128;BME280;7073;42.672;23.256;2023-09-30T01:11:15;94785.81;;;15.99;69.81
6128;BME280;7073;42.672;23.256;2023-09-30T01:13:44;94782.00;;;15.90;69.65
6128;BME280;7073;42.672;23.256;2023-09-30T01:16:13;94771.13;;;15.70;70.51
6128;BME280;7073;42.672;23.256;2023-09-30T01:18:40;94773.25;;;15.84;70.43
6128;BME280;7073;42.672;23.256;2023-09-30T01:21:08;94775.16;;;15.89;70.56
6128;BME280;7073;42.672;23.256;2023-09-30T01:23:37;94785.19;;;15.92;70.58
6128;BME280;7073;42.672;23.256;2023-09-30T01:26:05;94755.22;;;15.76;70.27
6128;BME280;7073;42.672;23.256;2023-09-30T01:28:34;94778.16;;;15.81;71.07
6128;BME280;7073;42.672;23.256;2023-09-30T01:31:01;94774.56;;;15.70;71.13
6128;BME280;7073;42.672;23.256;2023-09-30T01:33:27;94779.41;;;15.62;71.33
6128;BME280;7073;42.672;23.256;2023-09-30T01:35:54;94779.00;;;15.70;70.95
6128;BME280;7073;42.672;23.256;2023-09-30T01:38:21;94764.56;;;15.84;70.25
6128;BME280;7073;42.672;23.256;2023-09-30T01:40:49;94776.91;;;16.00;69.84
6128;BME280;7073;42.672;23.256;2023-09-30T01:43:16;94775.66;;;16.19;68.99
6128;BME280;7073;42.672;23.256;2023-09-30T01:45:43;94779.56;;;16.17;68.39
6128;BME280;7073;42.672;23.256;2023-09-30T01:48:10;94779.06;;;16.03;69.01
6128;BME280;7073;42.672;23.256;2023-09-30T01:50:37;94773.97;;;16.13;68.64
6128;BME280;7073;42.672;23.256;2023-09-30T01:53:05;94774.22;;;16.28;67.94
6128;BME280;7073;42.672;23.256;2023-09-30T01:55:32;94776.47;;;16.20;67.80
6128;BME280;7073;42.672;23.256;2023-09-30T01:58:00;94761.53;;;16.25;67.44
6128;BME280;7073;42.672;23.256;2023-09-30T02:00:27;94771.19;;;16.36;67.45
6128;BME280;7073;42.672;23.256;2023-09-30T02:02:54;94774.75;;;15.97;69.15
6128;BME280;7073;42.672;23.256;2023-09-30T02:05:22;94766.53;;;15.93;70.15
6128;BME280;7073;42.672;23.256;2023-09-30T02:07:49;94766.38;;;15.83;71.45
6128;BME280;7073;42.672;23.256;2023-09-30T02:10:16;94772.34;;;15.79;71.40
6128;BME280;7073;42.672;23.256;2023-09-30T02:12:44;94765.88;;;15.70;71.15
6128;BME280;7073;42.672;23.256;2023-09-30T02:15:13;94769.28;;;15.54;71.89
6128;BME280;7073;42.672;23.256;2023-09-30T02:17:41;94744.75;;;15.37;72.75
6128;BME280;7073;42.672;23.256;2023-09-30T02:20:11;94766.66;;;15.42;72.26
6128;BME280;7073;42.672;23.256;2023-09-30T02:22:41;94757.94;;;15.25;73.74
6128;BME280;7073;42.672;23.256;2023-09-30T02:25:09;94763.59;;;15.33;73.95
6128;BME280;7073;42.672;23.256;2023-09-30T02:27:38;94765.69;;;15.60;73.33
6128;BME280;7073;42.672;23.256;2023-09-30T02:30:08;94770.91;;;15.71;71.74
6128;BME280;7073;42.672;23.256;2023-09-30T02:32:37;94770.91;;;15.71;71.74
6128;BME280;7073;42.672;23.256;2023-09-30T02:35:04;94770.91;;;15.71;71.74
6128;BME280;7073;42.672;23.256;2023-09-30T02:37:32;94766.31;;;15.50;73.67
6128;BME280;7073;42.672;23.256;2023-09-30T02:40:01;94771.41;;;15.57;71.73
6128;BME280;7073;42.672;23.256;2023-09-30T02:42:29;94744.13;;;15.58;71.88
6128;BME280;7073;42.672;23.256;2023-09-30T02:44:56;94761.59;;;15.80;70.64
6128;BME280;7073;42.672;23.256;2023-09-30T02:47:23;94776.59;;;15.80;70.41
6128;BME280;7073;42.672;23.256;2023-09-30T02:49:51;94768.41;;;15.48;72.28
6128;BME280;7073;42.672;23.256;2023-09-30T02:52:18;94768.41;;;15.48;72.28
6128;BME280;7073;42.672;23.256;2023-09-30T02:54:44;94768.41;;;15.48;72.28
6128;BME280;7073;42.672;23.256;2023-09-30T02:57:11;94774.53;;;15.42;74.21
6128;BME280;7073;42.672;23.256;2023-09-30T02:59:38;94774.53;;;15.42;74.21
6128;BME280;7073;42.672;23.256;2023-09-30T03:02:22;66884.56;;;-143.30;100.00
6128;BME280;7073;42.672;23.256;2023-09-30T03:04:50;72025.38;;;-143.30;74.21
6128;BME280;7073;42.672;23.256;2023-09-30T03:07:18;94769.56;;;14.89;75.07
6128;BME280;7073;42.672;23.256;2023-09-30T03:09:45;94769.56;;;14.89;75.07
6128;BME280;7073;42.672;23.256;2023-09-30T03:12:12;94769.56;;;-143.30;75.07
6128;BME280;7073;42.672;23.256;2023-09-30T03:14:39;66884.56;;;-143.30;100.00
6128;BME280;7073;42.672;23.256;2023-09-30T03:17:06;66884.56;;;-143.30;100.00
6128;BME280;7073;42.672;23.256;2023-09-30T03:19:37;66884.56;;;-143.30;100.00
6128;BME280;7073;42.672;23.256;2023-09-30T03:22:05;94769.56;;;14.89;75.07
6128;BME280;7073;42.672;23.256;2023-09-30T03:24:37;66884.56;;;-143.30;100.00
6128;BME280;7073;42.672;23.256;2023-09-30T03:27:04;94769.56;;;14.89;75.07
6128;BME280;7073;42.672;23.256;2023-09-30T03:29:31;66884.56;;;-143.30;100.00
6128;BME280;7073;42.672;23.256;2023-09-30T03:31:57;66884.56;;;-143.30;100.00
6128;BME280;7073;42.672;23.256;2023-09-30T03:34:24;94769.56;;;14.89;75.07
6128;BME280;7073;42.672;23.256;2023-09-30T03:36:51;66884.56;;;-143.30;100.00
6128;BME280;7073;42.672;23.256;2023-09-30T03:39:19;66884.56;;;-143.30;100.00
6128;BME280;7073;42.672;23.256;2023-09-30T03:41:52;66884.56;;;-143.30;100.00
6128;BME280;7073;42.672;23.256;2023-09-30T03:44:19;66884.56;;;-143.30;100.00
6128;BME280;7073;42.672;23.256;2023-09-30T03:46:46;66884.56;;;-143.30;100.00
6128;BME280;7073;42.672;23.256;2023-09-30T03:49:13;66884.56;;;-143.30;100.00
6128;BME280;7073;42.672;23.256;2023-09-30T03:51:40;66884.56;;;-143.30;100.00
6128;BME280;7073;42.672;23.256;2023-09-30T03:54:07;66884.56;;;-143.30;100.00
6128;BME280;7073;42.672;23.256;2023-09-30T03:56:35;66884.56;;;-143.30;100.00
6128;BME280;7073;42.672;23.256;2023-09-30T03:59:03;94759.97;;;14.83;72.74
6128;BME280;7073;42.672;23.256;2023-09-30T04:01:30;94759.97;;;14.83;72.74
6128;BME280;7073;42.672;23.256;2023-09-30T04:03:57;94759.97;;;14.83;72.74
6128;BME280;7073;42.672;23.256;2023-09-30T04:06:24;94759.97;;;14.83;72.74
6128;BME280;7073;42.672;23.256;2023-09-30T04:08:51;94759.97;;;14.83;72.74
6128;BME280;7073;42.672;23.256;2023-09-30T04:11:18;94759.97;;;14.83;72.74
6128;BME280;7073;42.672;23.256;2023-09-30T04:13:47;94771.75;;;15.20;71.28
6128;BME280;7073;42.672;23.256;2023-09-30T04:16:15;94769.94;;;15.21;70.02
6128;BME280;7073;42.672;23.256;2023-09-30T04:18:44;94774.44;;;14.97;71.44
6128;BME280;7073;42.672;23.256;2023-09-30T04:21:11;94769.44;;;14.96;71.94
6128;BME280;7073;42.672;23.256;2023-09-30T04:23:38;94770.38;;;14.78;74.38
6128;BME280;7073;42.672;23.256;2023-09-30T04:26:04;94781.25;;;15.10;72.83
6128;BME280;7073;42.672;23.256;2023-09-30T04:28:31;94783.72;;;15.28;72.80
6128;BME280;7073;42.672;23.256;2023-09-30T04:31:00;94787.69;;;15.30;72.07
6128;BME280;7073;42.672;23.256;2023-09-30T04:33:28;94789.03;;;15.45;70.66
6128;BME280;7073;42.672;23.256;2023-09-30T04:35:55;94785.72;;;15.49;70.33
6128;BME280;7073;42.672;23.256;2023-09-30T04:38:22;94785.72;;;15.49;70.33
6128;BME280;7073;42.672;23.256;2023-09-30T04:40:50;94785.72;;;15.49;70.33
6128;BME280;7073;42.672;23.256;2023-09-30T04:43:17;94791.44;;;14.95;72.68
6128;BME280;7073;42.672;23.256;2023-09-30T04:45:44;66884.56;;;-143.30;72.68
6128;BME280;7073;42.672;23.256;2023-09-30T04:48:13;-9229.16;;;-143.30;72.68
6128;BME280;7073;42.672;23.256;2023-09-30T04:50:40;-8730.56;;;-143.30;72.68
6128;BME280;7073;42.672;23.256;2023-09-30T04:53:06;94791.44;;;14.95;72.68
6128;BME280;7073;42.672;23.256;2023-09-30T04:58:00;66884.56;;;-143.30;100.00
6128;BME280;7073;42.672;23.256;2023-09-30T05:00:27;66884.56;;;-143.30;100.00
6128;BME280;7073;42.672;23.256;2023-09-30T05:02:55;66884.56;;;-143.30;100.00
6128;BME280;7073;42.672;23.256;2023-09-30T05:05:25;66884.56;;;-143.30;100.00
6128;BME280;7073;42.672;23.256;2023-09-30T05:07:52;66884.56;;;-143.30;100.00
6128;BME280;7073;42.672;23.256;2023-09-30T05:10:19;66884.56;;;-143.30;100.00
6128;BME280;7073;42.672;23.256;2023-09-30T05:12:45;66884.56;;;-143.30;100.00
6128;BME280;7073;42.672;23.256;2023-09-30T05:15:12;66884.56;;;-143.30;100.00
6128;BME280;7073;42.672;23.256;2023-09-30T05:17:41;66884.56;;;-143.30;100.00
6128;BME280;7073;42.672;23.256;2023-09-30T05:20:09;66884.56;;;-143.30;100.00
6128;BME280;7073;42.672;23.256;2023-09-30T05:22:39;66884.56;;;-143.30;100.00
6128;BME280;7073;42.672;23.256;2023-09-30T05:25:09;66884.56;;;-143.30;100.00
6128;BME280;7073;42.672;23.256;2023-09-30T05:27:36;66884.56;;;-143.30;100.00
6128;BME280;7073;42.672;23.256;2023-09-30T05:30:03;66884.56;;;-143.30;100.00
6128;BME280;7073;42.672;23.256;2023-09-30T05:32:31;66884.56;;;-143.30;100.00
6128;BME280;7073;42.672;23.256;2023-09-30T05:34:58;66884.56;;;-143.30;100.00
6128;BME280;7073;42.672;23.256;2023-09-30T05:37:26;66884.56;;;-143.30;100.00
6128;BME280;7073;42.672;23.256;2023-09-30T05:39:54;66884.56;;;-143.30;100.00
6128;BME280;7073;42.672;23.256;2023-09-30T05:42:21;66884.56;;;-143.30;100.00
6128;BME280;7073;42.672;23.256;2023-09-30T05:44:48;66884.56;;;-143.30;100.00
6128;BME280;7073;42.672;23.256;2023-09-30T05:47:14;66884.56;;;-143.30;100.00
6128;BME280;7073;42.672;23.256;2023-09-30T05:49:41;66884.56;;;-143.30;100.00
6128;BME280;7073;42.672;23.256;2023-09-30T05:52:08;66884.56;;;-143.30;100.00
6128;BME280;7073;42.672;23.256;2023-09-30T05:54:35;66884.56;;;-143.30;100.00
6128;BME280;7073;42.672;23.256;2023-09-30T05:57:03;66884.56;;;-143.30;100.00
6128;BME280;7073;42.672;23.256;2023-09-30T05:59:30;66884.56;;;-143.30;100.00
6128;BME280;7073;42.672;23.256;2023-09-30T06:01:58;66884.56;;;-143.30;100.00
6128;BME280;7073;42.672;23.256;2023-09-30T06:04:24;66884.56;;;-143.30;100.00
6128;BME280;7073;42.672;23.256;2023-09-30T06:06:51;66884.56;;;-143.30;100.00
6128;BME280;7073;42.672;23.256;2023-09-30T06:09:18;66884.56;;;-143.30;100.00
6128;BME280;7073;42.672;23.256;2023-09-30T06:11:45;66884.56;;;-143.30;100.00
6128;BME280;7073;42.672;23.256;2023-09-30T06:14:15;66884.56;;;-143.30;100.00
6128;BME280;7073;42.672;23.256;2023-09-30T06:16:42;66884.56;;;-143.30;100.00
6128;BME280;7073;42.672;23.256;2023-09-30T06:19:09;66884.56;;;-143.30;100.00
6128;BME280;7073;42.672;23.256;2023-09-30T06:21:36;66884.56;;;-143.30;100.00
6128;BME280;7073;42.672;23.256;2023-09-30T06:24:05;66884.56;;;-143.30;100.00
6128;BME280;7073;42.672;23.256;2023-09-30T06:26:32;66884.56;;;-143.30;100.00
6128;BME280;7073;42.672;23.256;2023-09-30T06:28:59;66884.56;;;-143.30;100.00
6128;BME280;7073;42.672;23.256;2023-09-30T06:31:27;66884.56;;;-143.30;100.00
6128;BME280;7073;42.672;23.256;2023-09-30T06:33:54;66884.56;;;-143.30;100.00
6128;BME280;7073;42.672;23.256;2023-09-30T06:36:23;66884.56;;;-143.30;100.00
6128;BME280;7073;42.672;23.256;2023-09-30T06:38:50;66884.56;;;-143.30;100.00
6128;BME280;7073;42.672;23.256;2023-09-30T06:41:17;66884.56;;;-143.30;100.00
6128;BME280;7073;42.672;23.256;2023-09-30T06:43:45;66884.56;;;-143.30;100.00
6128;BME280;7073;42.672;23.256;2023-09-30T06:46:12;66884.56;;;-143.30;100.00
6128;BME280;7073;42.672;23.256;2023-09-30T06:48:40;66884.56;;;-143.30;100.00
6128;BME280;7073;42.672;23.256;2023-09-30T06:51:13;66884.56;;;-143.30;100.00
6128;BME280;7073;42.672;23.256;2023-09-30T06:53:40;66884.56;;;-143.30;100.00
6128;BME280;7073;42.672;23.256;2023-09-30T06:56:07;66884.56;;;-143.30;100.00
6128;BME280;7073;42.672;23.256;2023-09-30T06:58:34;66884.56;;;-143.30;100.00
6128;BME280;7073;42.672;23.256;2023-09-30T07:01:01;66884.56;;;-143.30;100.00
6128;BME280;7073;42.672;23.256;2023-09-30T07:03:27;66884.56;;;-143.30;100.00
6128;BME280;7073;42.672;23.256;2023-09-30T07:05:57;66884.56;;;-143.30;100.00
6128;BME280;7073;42.672;23.256;2023-09-30T07:08:26;66884.56;;;-143.30;100.00
6128;BME280;7073;42.672;23.256;2023-09-30T07:10:54;66884.56;;;-143.30;100.00
6128;BME280;7073;42.672;23.256;2023-09-30T07:13:22;66884.56;;;-143.30;100.00
6128;BME280;7073;42.672;23.256;2023-09-30T07:15:48;66884.56;;;-143.30;100.00
6128;BME280;7073;42.672;23.256;2023-09-30T07:18:16;66884.56;;;-143.30;100.00
6128;BME280;7073;42.672;23.256;2023-09-30T07:20:43;66884.56;;;-143.30;100.00
6128;BME280;7073;42.672;23.256;2023-09-30T07:23:11;66884.56;;;-143.30;100.00
6128;BME280;7073;42.672;23.256;2023-09-30T07:25:38;66884.56;;;-143.30;100.00
6128;BME280;7073;42.672;23.256;2023-09-30T07:28:05;66884.56;;;-143.30;100.00
6128;BME280;7073;42.672;23.256;2023-09-30T07:30:37;66884.56;;;-143.30;100.00
6128;BME280;7073;42.672;23.256;2023-09-30T07:33:04;66884.56;;;-143.30;100.00
6128;BME280;7073;42.672;23.256;2023-09-30T07:35:31;66884.56;;;-143.30;100.00
6128;BME280;7073;42.672;23.256;2023-09-30T07:37:57;66884.56;;;-143.30;100.00
6128;BME280;7073;42.672;23.256;2023-09-30T07:40:25;66884.56;;;-143.30;100.00
6128;BME280;7073;42.672;23.256;2023-09-30T07:42:53;66884.56;;;-143.30;100.00
6128;BME280;7073;42.672;23.256;2023-09-30T07:45:20;66884.56;;;-143.30;100.00
6128;BME280;7073;42.672;23.256;2023-09-30T07:47:47;66884.56;;;-143.30;100.00
6128;BME280;7073;42.672;23.256;2023-09-30T07:50:14;66884.56;;;-143.30;100.00
6128;BME280;7073;42.672;23.256;2023-09-30T07:52:41;66884.56;;;-143.30;100.00
6128;BME280;7073;42.672;23.256;2023-09-30T07:55:08;66884.56;;;-143.30;100.00
6128;BME280;7073;42.672;23.256;2023-09-30T07:57:40;66884.56;;;-143.30;100.00
6128;BME280;7073;42.672;23.256;2023-09-30T08:00:08;66884.56;;;-143.30;100.00
6128;BME280;7073;42.672;23.256;2023-09-30T08:02:40;66884.56;;;-143.30;100.00
6128;BME280;7073;42.672;23.256;2023-09-30T08:05:08;66884.56;;;-143.30;100.00
6128;BME280;7073;42.672;23.256;2023-09-30T08:07:35;66884.56;;;-143.30;100.00
6128;BME280;7073;42.672;23.256;2023-09-30T08:10:02;66884.56;;;-143.30;100.00
6128;BME280;7073;42.672;23.256;2023-09-30T08:12:30;66884.56;;;-143.30;100.00
6128;BME280;7073;42.672;23.256;2023-09-30T08:14:58;66884.56;;;-143.30;100.00
6128;BME280;7073;42.672;23.256;2023-09-30T08:17:25;66884.56;;;-143.30;100.00
6128;BME280;7073;42.672;23.256;2023-09-30T08:19:52;66884.56;;;-143.30;100.00
6128;BME280;7073;42.672;23.256;2023-09-30T08:22:18;66884.56;;;-143.30;100.00
6128;BME280;7073;42.672;23.256;2023-09-30T08:24:46;66884.56;;;-143.30;100.00
6128;BME280;7073;42.672;23.256;2023-09-30T08:27:13;66884.56;;;-143.30;100.00
6128;BME280;7073;42.672;23.256;2023-09-30T08:29:39;66884.56;;;-143.30;100.00
6128;BME280;7073;42.672;23.256;2023-09-30T08:32:07;66884.56;;;-143.30;100.00
6128;BME280;7073;42.672;23.256;2023-09-30T08:34:35;66884.56;;;-143.30;100.00
6128;BME280;7073;42.672;23.256;2023-09-30T08:37:01;66884.56;;;-143.30;100.00
6128;BME280;7073;42.672;23.256;2023-09-30T08:39:29;66884.56;;;-143.30;100.00
6128;BME280;7073;42.672;23.256;2023-09-30T08:41:55;66884.56;;;-143.30;100.00
6128;BME280;7073;42.672;23.256;2023-09-30T08:44:23;66884.56;;;-143.30;100.00
6128;BME280;7073;42.672;23.256;2023-09-30T08:46:50;66884.56;;;-143.30;100.00
6128;BME280;7073;42.672;23.256;2023-09-30T08:49:19;66884.56;;;-143.30;100.00
6128;BME280;7073;42.672;23.256;2023-09-30T08:51:48;66884.56;;;-143.30;100.00
6128;BME280;7073;42.672;23.256;2023-09-30T08:54:15;66884.56;;;-143.30;100.00
6128;BME280;7073;42.672;23.256;2023-09-30T08:56:44;66884.56;;;-143.30;100.00
6128;BME280;7073;42.672;23.256;2023-09-30T08:59:15;66884.56;;;-143.30;100.00
6128;BME280;7073;42.672;23.256;2023-09-30T09:01:41;66884.56;;;-143.30;100.00
6128;BME280;7073;42.672;23.256;2023-09-30T09:04:08;66884.56;;;-143.30;100.00
6128;BME280;7073;42.672;23.256;2023-09-30T09:06:37;66884.56;;;-143.30;100.00
6128;BME280;7073;42.672;23.256;2023-09-30T09:09:13;66884.56;;;-143.30;100.00
6128;BME280;7073;42.672;23.256;2023-09-30T09:11:40;66884.56;;;-143.30;100.00
6128;BME280;7073;42.672;23.256;2023-09-30T09:14:07;66884.56;;;-143.30;100.00
6128;BME280;7073;42.672;23.256;2023-09-30T09:16:34;66884.56;;;-143.30;100.00
6128;BME280;7073;42.672;23.256;2023-09-30T09:19:13;66884.56;;;-143.30;100.00
6128;BME280;7073;42.672;23.256;2023-09-30T09:21:53;66884.56;;;-143.30;100.00
6128;BME280;7073;42.672;23.256;2023-09-30T09:24:27;66884.56;;;-143.30;100.00
6128;BME280;7073;42.672;23.256;2023-09-30T09:27:03;66884.56;;;-143.30;100.00
6128;BME280;7073;42.672;23.256;2023-09-30T09:29:30;66884.56;;;-143.30;100.00
6128;BME280;7073;42.672;23.256;2023-09-30T09:32:07;66884.56;;;-143.30;100.00
6128;BME280;7073;42.672;23.256;2023-09-30T09:34:34;66884.56;;;-143.30;100.00
6128;BME280;7073;42.672;23.256;2023-09-30T09:37:12;66884.56;;;-143.30;100.00
6128;BME280;7073;42.672;23.256;2023-09-30T09:39:40;66884.56;;;-143.30;100.00
6128;BME280;7073;42.672;23.256;2023-09-30T09:42:07;66884.56;;;-143.30;100.00
6128;BME280;7073;42.672;23.256;2023-09-30T09:44:36;66884.56;;;-143.30;100.00
6128;BME280;7073;42.672;23.256;2023-09-30T09:47:05;66884.56;;;-143.30;100.00
6128;BME280;7073;42.672;23.256;2023-09-30T09:49:33;66884.56;;;-143.30;100.00
6128;BME280;7073;42.672;23.256;2023-09-30T09:52:00;66884.56;;;-143.30;100.00
6128;BME280;7073;42.672;23.256;2023-09-30T09:54:31;66884.56;;;-143.30;100.00
6128;BME280;7073;42.672;23.256;2023-09-30T09:57:00;66884.56;;;-143.30;100.00
6128;BME280;7073;42.672;23.256;2023-09-30T09:59:27;66884.56;;;-143.30;100.00
6128;BME280;7073;42.672;23.256;2023-09-30T10:01:55;66884.56;;;-143.30;100.00
6128;BME280;7073;42.672;23.256;2023-09-30T10:04:22;66884.56;;;-143.30;100.00
6128;BME280;7073;42.672;23.256;2023-09-30T10:06:52;66884.56;;;-143.30;100.00
6128;BME280;7073;42.672;23.256;2023-09-30T10:09:21;66884.56;;;-143.30;100.00
6128;BME280;7073;42.672;23.256;2023-09-30T10:11:57;66884.56;;;-143.30;100.00
6128;BME280;7073;42.672;23.256;2023-09-30T10:14:30;66884.56;;;-143.30;100.00
6128;BME280;7073;42.672;23.256;2023-09-30T10:16:58;66884.56;;;-143.30;100.00
6128;BME280;7073;42.672;23.256;2023-09-30T10:19:25;66884.56;;;-143.30;100.00
6128;BME280;7073;42.672;23.256;2023-09-30T10:22:20;66884.56;;;-143.30;100.00
6128;BME280;7073;42.672;23.256;2023-09-30T10:24:48;66884.56;;;-143.30;100.00
6128;BME280;7073;42.672;23.256;2023-09-30T10:27:30;66884.56;;;-143.30;100.00
6128;BME280;7073;42.672;23.256;2023-09-30T10:29:58;66884.56;;;-143.30;100.00
6128;BME280;7073;42.672;23.256;2023-09-30T10:35:44;66884.56;;;-143.30;100.00
6128;BME280;7073;42.672;23.256;2023-09-30T10:38:37;66884.56;;;-143.30;100.00
6128;BME280;7073;42.672;23.256;2023-09-30T10:41:07;66884.56;;;-143.30;100.00
6128;BME280;7073;42.672;23.256;2023-09-30T10:43:38;66884.56;;;-143.30;100.00
6128;BME280;7073;42.672;23.256;2023-09-30T10:46:30;66884.56;;;-143.30;100.00
6128;BME280;7073;42.672;23.256;2023-09-30T10:49:17;66884.56;;;-143.30;100.00
6128;BME280;7073;42.672;23.256;2023-09-30T10:51:58;66884.56;;;-143.30;100.00
6128;BME280;7073;42.672;23.256;2023-09-30T10:54:27;66884.56;;;-143.30;100.00
6128;BME280;7073;42.672;23.256;2023-09-30T10:56:54;66884.56;;;-143.30;100.00
6128;BME280;7073;42.672;23.256;2023-09-30T10:59:23;66884.56;;;-143.30;100.00
6128;BME280;7073;42.672;23.256;2023-09-30T11:01:51;66884.56;;;-143.30;100.00
6128;BME280;7073;42.672;23.256;2023-09-30T11:04:19;66884.56;;;-143.30;100.00
6128;BME280;7073;42.672;23.256;2023-09-30T11:06:47;66884.56;;;-143.30;100.00
6128;BME280;7073;42.672;23.256;2023-09-30T11:09:18;66884.56;;;-143.30;100.00
6128;BME280;7073;42.672;23.256;2023-09-30T11:11:47;66884.56;;;-143.30;100.00
6128;BME280;7073;42.672;23.256;2023-09-30T11:14:23;66884.56;;;-143.30;100.00
6128;BME280;7073;42.672;23.256;2023-09-30T11:16:52;66884.56;;;-143.30;100.00
6128;BME280;7073;42.672;23.256;2023-09-30T11:19:20;66884.56;;;-143.30;100.00
6128;BME280;7073;42.672;23.256;2023-09-30T11:21:49;66884.56;;;-143.30;100.00
6128;BME280;7073;42.672;23.256;2023-09-30T11:24:16;66884.56;;;-143.30;100.00
6128;BME280;7073;42.672;23.256;2023-09-30T11:26:43;66884.56;;;-143.30;100.00
6128;BME280;7073;42.672;23.256;2023-09-30T11:29:13;66884.56;;;-143.30;100.00
6128;BME280;7073;42.672;23.256;2023-09-30T11:31:43;66884.56;;;-143.30;100.00
6128;BME280;7073;42.672;23.256;2023-09-30T11:34:12;66884.56;;;-143.30;100.00
6128;BME280;7073;42.672;23.256;2023-09-30T11:36:40;66884.56;;;-143.30;100.00
6128;BME280;7073;42.672;23.256;2023-09-30T11:39:08;66884.56;;;-143.30;100.00
6128;BME280;7073;42.672;23.256;2023-09-30T11:41:37;66884.56;;;-143.30;100.00
6128;BME280;7073;42.672;23.256;2023-09-30T11:44:05;66884.56;;;-143.30;100.00
6128;BME280;7073;42.672;23.256;2023-09-30T11:46:49;66884.56;;;-143.30;100.00
6128;BME280;7073;42.672;23.256;2023-09-30T11:49:28;66884.56;;;-143.30;100.00
6128;BME280;7073;42.672;23.256;2023-09-30T11:51:55;66884.56;;;-143.30;100.00
6128;BME280;7073;42.672;23.256;2023-09-30T11:54:22;66884.56;;;-143.30;100.00
6128;BME280;7073;42.672;23.256;2023-09-30T11:56:49;66884.56;;;-143.30;100.00
6128;BME280;7073;42.672;23.256;2023-09-30T11:59:17;66884.56;;;-143.30;100.00
6128;BME280;7073;42.672;23.256;2023-09-30T12:01:49;66884.56;;;-143.30;100.00
6128;BME280;7073;42.672;23.256;2023-09-30T12:04:16;66884.56;;;-143.30;100.00
6128;BME280;7073;42.672;23.256;2023-09-30T12:06:45;66884.56;;;-143.30;100.00
6128;BME280;7073;42.672;23.256;2023-09-30T12:09:12;66884.56;;;-143.30;100.00
6128;BME280;7073;42.672;23.256;2023-09-30T12:11:40;66884.56;;;-143.30;100.00
6128;BME280;7073;42.672;23.256;2023-09-30T12:14:09;66884.56;;;-143.30;100.00
6128;BME280;7073;42.672;23.256;2023-09-30T12:16:36;66884.56;;;-143.30;100.00
6128;BME280;7073;42.672;23.256;2023-09-30T12:19:04;66884.56;;;-143.30;100.00
6128;BME280;7073;42.672;23.256;2023-09-30T12:21:31;66884.56;;;-143.30;100.00
6128;BME280;7073;42.672;23.256;2023-09-30T12:23:59;66884.56;;;-143.30;100.00
6128;BME280;7073;42.672;23.256;2023-09-30T12:26:27;66884.56;;;-143.30;100.00
6128;BME280;7073;42.672;23.256;2023-09-30T12:28:53;66884.56;;;-143.30;100.00
6128;BME280;7073;42.672;23.256;2023-09-30T12:31:20;66884.56;;;-143.30;100.00
6128;BME280;7073;42.672;23.256;2023-09-30T12:33:47;66884.56;;;-143.30;100.00
6128;BME280;7073;42.672;23.256;2023-09-30T12:36:17;66884.56;;;-143.30;100.00
6128;BME280;7073;42.672;23.256;2023-09-30T12:38:44;66884.56;;;-143.30;100.00
6128;BME280;7073;42.672;23.256;2023-09-30T12:41:11;66884.56;;;-143.30;100.00
6128;BME280;7073;42.672;23.256;2023-09-30T12:43:38;66884.56;;;-143.30;100.00
6128;BME280;7073;42.672;23.256;2023-09-30T12:46:06;66884.56;;;-143.30;100.00
6128;BME280;7073;42.672;23.256;2023-09-30T12:48:33;66884.56;;;-143.30;100.00
6128;BME280;7073;42.672;23.256;2023-09-30T12:51:00;66884.56;;;-143.30;100.00
6128;BME280;7073;42.672;23.256;2023-09-30T12:53:30;66884.56;;;-143.30;100.00
6128;BME280;7073;42.672;23.256;2023-09-30T12:55:57;66884.56;;;-143.30;100.00
6128;BME280;7073;42.672;23.256;2023-09-30T12:58:25;66884.56;;;-143.30;100.00
6128;BME280;7073;42.672;23.256;2023-09-30T13:00:53;66884.56;;;-143.30;100.00